Search for airport 
image banner adimage banner adimage banner ad
image banner ad

12PN - Wcau

Located in Philadelphia, United States

ICAO - 12PN, IATA -

Data provided by Airmate  

General information

Coordinates: N40°0'26" W75°12'56"
Elevation is 230 feet MSL.
Magnetic variation is -11° East
View others Airports in Pennsylvania

Operational data

Special qualification required
Current time UTC:
Current local time:
Weather at : KLOM - Wings Field ( 15 km )
METAR: KLOM 071155Z AUTO 07006KT 10SM CLR 10/02 A2993 RMK AO2 T01030022 10104 20036
View NOTAMs / SUP AIP / TFR affecting this airport [VIEW]
Communications frequencies: [VIEW]

Runways:

Airport contact information

Address: Philadelphia United States

Satellite view of 12PN